Time;durP1;ratioP1;P1;durP2;ratioP2;P2;SDS_P1;SDS_P2;PMS_P1;PMS_P2;Temp;Humidity;BMP_temperature;BMP_pressure;BME280_temperature;BME280_humidity;BME280_pressure;Samples;Min_cycle;Max_cycle;Signal;HPM_P1;HPM_P2
2022/08/24 00:00:14;;;;;;;5.65;1.75;;;23.10;93.20;;;;;;5036760;28;20903;-74
2022/08/24 00:02:43;;;;;;;5.80;1.88;;;23.10;93.10;;;;;;5035302;28;20204;-74
2022/08/24 00:05:11;;;;;;;5.32;1.77;;;23.10;93.10;;;;;;5037822;28;20243;-75
2022/08/24 00:07:42;;;;;;;5.45;1.75;;;23.10;93.10;;;;;;5038561;28;20346;-74
2022/08/24 00:10:12;;;;;;;4.80;2.10;;;23.10;93.10;;;;;;5036925;28;20187;-74
2022/08/24 00:12:42;;;;;;;3.78;1.90;;;23.20;93.00;;;;;;5034786;28;20219;-74
2022/08/24 00:15:12;;;;;;;7.07;2.65;;;23.20;93.00;;;;;;5038984;28;20188;-74
2022/08/24 00:17:41;;;;;;;5.07;1.85;;;23.20;93.00;;;;;;5036499;28;20187;-74
2022/08/24 00:20:12;;;;;;;6.57;2.40;;;23.20;93.00;;;;;;5039724;28;20202;-74
2022/08/24 00:22:40;;;;;;;5.68;2.00;;;23.20;93.20;;;;;;5035567;28;20194;-74
2022/08/24 00:25:12;;;;;;;5.43;2.20;;;23.20;93.40;;;;;;5037644;28;20203;-75
2022/08/24 00:27:41;;;;;;;3.53;2.05;;;23.10;93.50;;;;;;5034350;28;20663;-74
2022/08/24 00:30:14;;;;;;;4.43;1.90;;;23.10;93.70;;;;;;5036867;28;20187;-75
2022/08/24 00:32:42;;;;;;;3.38;1.80;;;23.10;93.70;;;;;;5033079;28;20219;-74
2022/08/24 00:35:12;;;;;;;6.25;2.60;;;23.00;93.80;;;;;;5039559;28;20203;-73
2022/08/24 00:37:41;;;;;;;3.60;2.33;;;23.00;93.80;;;;;;5036682;28;20191;-74
2022/08/24 00:40:15;;;;;;;6.03;2.63;;;23.00;93.90;;;;;;5041632;28;20183;-74
2022/08/24 00:42:44;;;;;;;5.72;2.53;;;23.00;94.00;;;;;;5031918;28;20695;-73
2022/08/24 00:45:16;;;;;;;4.80;2.47;;;23.00;94.20;;;;;;5038421;28;20187;-74
2022/08/24 00:47:54;;;;;;;6.32;2.50;;;22.90;94.20;;;;;;5032187;28;20188;-73
2022/08/24 00:50:29;;;;;;;7.18;2.40;;;22.90;94.30;;;;;;5037547;28;20195;-73
2022/08/24 00:53:01;;;;;;;5.22;2.95;;;22.90;94.30;;;;;;5038253;28;20202;-74
2022/08/24 00:55:45;;;;;;;9.02;2.40;;;22.90;94.40;;;;;;5038316;28;20860;-74
2022/08/24 00:58:17;;;;;;;6.00;2.17;;;22.90;94.40;;;;;;5035209;28;20186;-73
2022/08/24 01:00:53;;;;;;;7.75;3.05;;;22.90;94.50;;;;;;5037694;28;20274;-73
2022/08/24 01:03:22;;;;;;;5.35;2.63;;;22.80;94.50;;;;;;5029045;28;20286;-73
2022/08/24 01:05:51;;;;;;;10.02;3.05;;;22.80;94.50;;;;;;5037888;28;20225;-73
2022/08/24 01:08:22;;;;;;;7.60;3.17;;;22.80;94.40;;;;;;5035551;28;20215;-74
2022/08/24 01:10:56;;;;;;;7.85;3.33;;;22.80;94.40;;;;;;5040002;28;20205;-73
2022/08/24 01:13:25;;;;;;;9.13;2.92;;;22.80;94.40;;;;;;5039638;28;20684;-73
2022/08/24 01:15:58;;;;;;;6.10;3.53;;;22.80;94.50;;;;;;5036534;28;20192;-74
2022/08/24 01:21:34;;;;;;;13.07;3.63;;;22.80;94.40;;;;;;4996495;28;20689;-74
2022/08/24 01:24:10;;;;;;;5.20;2.65;;;22.80;94.40;;;;;;4998341;28;20179;-74
2022/08/24 01:26:43;;;;;;;4.93;2.80;;;22.80;94.30;;;;;;5018077;28;20190;-74
2022/08/24 01:29:16;;;;;;;9.38;3.28;;;22.80;94.30;;;;;;5032468;28;20202;-74
2022/08/24 01:31:46;;;;;;;5.75;2.70;;;22.80;94.20;;;;;;5037741;28;20225;-74
2022/08/24 01:34:15;;;;;;;8.05;3.45;;;22.80;94.40;;;;;;5036964;28;20255;-74
2022/08/24 01:36:47;;;;;;;7.93;2.95;;;22.80;94.40;;;;;;5033364;28;20202;-74
2022/08/24 01:39:21;;;;;;;7.38;3.15;;;22.80;94.50;;;;;;5036971;28;20184;-74
2022/08/24 01:41:50;;;;;;;11.25;2.88;;;22.70;94.50;;;;;;5035457;28;20190;-74
2022/08/24 01:44:19;;;;;;;8.32;2.47;;;22.70;94.50;;;;;;5033437;28;20188;-75
2022/08/24 01:46:52;;;;;;;4.55;2.30;;;22.70;94.50;;;;;;5030850;28;20187;-75
2022/08/24 01:49:22;;;;;;;4.60;2.55;;;22.70;94.50;;;;;;5037380;28;20191;-74
2022/08/24 01:51:51;;;;;;;6.05;2.50;;;22.70;94.50;;;;;;5034236;28;20661;-74
2022/08/24 01:54:21;;;;;;;9.75;3.08;;;22.70;94.50;;;;;;5037352;28;20238;-75
2022/08/24 01:56:49;;;;;;;7.57;2.72;;;22.70;94.50;;;;;;5039423;28;20197;-74
2022/08/24 01:59:19;;;;;;;4.47;2.20;;;22.70;94.60;;;;;;5030646;28;20191;-73
2022/08/24 02:01:50;;;;;;;9.60;2.67;;;22.60;94.50;;;;;;5037278;28;20198;-74
2022/08/24 02:04:18;;;;;;;3.63;2.10;;;22.60;94.60;;;;;;5038964;28;20250;-74
2022/08/24 02:06:46;;;;;;;4.93;2.03;;;22.60;94.50;;;;;;5030023;28;20199;-74
2022/08/24 02:09:15;;;;;;;6.65;2.53;;;22.60;94.50;;;;;;5034995;28;20704;-75
2022/08/24 02:11:45;;;;;;;12.32;3.42;;;22.70;94.50;;;;;;5032225;28;20191;-74
2022/08/24 02:14:14;;;;;;;4.85;2.55;;;22.70;94.50;;;;;;5032189;28;20211;-74
2022/08/24 02:16:43;;;;;;;7.82;2.30;;;22.70;94.50;;;;;;5038563;28;20183;-74
2022/08/24 02:19:11;;;;;;;7.28;2.40;;;22.70;94.50;;;;;;5036805;28;20688;-74
2022/08/24 02:21:40;;;;;;;4.50;2.42;;;22.70;94.40;;;;;;5032413;28;20199;-74
2022/08/24 02:24:08;;;;;;;4.68;2.63;;;22.70;94.40;;;;;;5037566;28;20195;-74
2022/08/24 02:26:37;;;;;;;5.82;2.67;;;22.70;94.40;;;;;;5033534;28;20649;-75
2022/08/24 02:29:07;;;;;;;9.82;2.28;;;22.80;94.40;;;;;;5036641;28;20672;-74
2022/08/24 02:31:36;;;;;;;3.42;2.28;;;22.70;94.40;;;;;;5029790;28;20206;-74
2022/08/24 02:34:04;;;;;;;6.07;2.38;;;22.80;94.40;;;;;;5034670;28;20442;-74
2022/08/24 02:36:33;;;;;;;5.25;2.55;;;22.70;94.40;;;;;;5029071;28;20255;-74
2022/08/24 02:39:01;;;;;;;6.55;2.67;;;22.70;94.40;;;;;;5036781;28;20199;-74
2022/08/24 02:41:29;;;;;;;5.43;2.38;;;22.80;94.40;;;;;;5028418;28;20203;-74
2022/08/24 02:43:58;;;;;;;7.35;2.80;;;22.80;94.40;;;;;;5037357;28;20191;-74
2022/08/24 02:46:30;;;;;;;5.63;2.92;;;22.80;94.30;;;;;;5036744;28;20191;-74
2022/08/24 02:48:59;;;;;;;8.15;2.47;;;22.80;94.30;;;;;;5036744;28;20184;-75
2022/08/24 02:51:40;;;;;;;4.22;2.40;;;22.80;94.30;;;;;;5037839;28;20187;-75
2022/08/24 02:54:13;;;;;;;7.18;2.40;;;22.70;94.30;;;;;;5040823;28;20306;-74
2022/08/24 02:56:41;;;;;;;6.15;2.60;;;22.80;94.30;;;;;;5036646;28;20195;-74
2022/08/24 02:59:10;;;;;;;8.85;2.70;;;22.70;94.30;;;;;;5042216;28;20222;-74
2022/08/24 03:01:40;;;;;;;9.48;2.78;;;22.80;94.30;;;;;;5036877;28;20548;-74
2022/08/24 03:04:09;;;;;;;4.28;2.50;;;22.80;94.30;;;;;;5043323;28;20235;-74
2022/08/24 03:06:38;;;;;;;5.18;3.03;;;22.80;94.30;;;;;;5032805;28;20198;-75
2022/08/24 03:09:07;;;;;;;7.57;3.30;;;22.70;94.30;;;;;;5039044;28;20218;-74
2022/08/24 03:11:35;;;;;;;4.72;2.60;;;22.80;94.40;;;;;;5042243;28;20207;-74
2022/08/24 03:14:04;;;;;;;4.40;2.47;;;22.70;94.30;;;;;;5035933;28;20222;-74
2022/08/24 03:16:33;;;;;;;4.95;2.55;;;22.80;94.40;;;;;;5033028;28;20198;-74
2022/08/24 03:19:02;;;;;;;4.93;3.03;;;22.70;94.40;;;;;;5039199;28;20195;-75
2022/08/24 03:21:31;;;;;;;7.03;2.90;;;22.70;94.40;;;;;;5039386;28;20199;-74
2022/08/24 03:24:00;;;;;;;5.78;2.90;;;22.70;94.40;;;;;;5035653;28;20203;-75
2022/08/24 03:26:28;;;;;;;7.32;3.00;;;22.70;94.50;;;;;;5039216;28;20200;-74
2022/08/24 03:28:57;;;;;;;6.03;2.80;;;22.70;94.50;;;;;;5040180;28;20562;-76
2022/08/24 03:31:27;;;;;;;5.93;2.50;;;22.70;94.50;;;;;;5038400;28;20202;-75
2022/08/24 03:33:55;;;;;;;8.07;2.88;;;22.70;94.50;;;;;;5035934;28;20285;-75
2022/08/24 03:36:25;;;;;;;4.60;2.38;;;22.70;94.50;;;;;;5036322;28;20865;-74
2022/08/24 03:38:53;;;;;;;5.40;2.72;;;22.70;94.50;;;;;;5041320;28;20233;-74
2022/08/24 03:41:22;;;;;;;6.38;2.72;;;22.70;94.50;;;;;;5035799;28;20203;-74
2022/08/24 03:43:50;;;;;;;8.70;2.70;;;22.70;94.50;;;;;;5034751;28;20215;-74
2022/08/24 03:46:20;;;;;;;5.07;2.63;;;22.70;94.50;;;;;;5035223;28;20194;-74
2022/08/24 03:48:53;;;;;;;6.28;2.65;;;22.70;94.50;;;;;;5035514;28;20475;-74
2022/08/24 03:51:25;;;;;;;6.47;2.80;;;22.70;94.50;;;;;;5041726;28;20194;-74
2022/08/24 03:53:55;;;;;;;9.88;2.90;;;22.70;94.40;;;;;;5038149;28;20211;-75
2022/08/24 03:56:24;;;;;;;5.80;2.45;;;22.70;94.50;;;;;;5036371;28;20206;-76
2022/08/24 03:58:53;;;;;;;5.50;3.00;;;22.70;94.40;;;;;;5033088;28;20199;-74
2022/08/24 04:01:22;;;;;;;8.98;2.90;;;22.70;94.40;;;;;;5036928;28;20211;-74
2022/08/24 04:03:52;;;;;;;5.75;2.70;;;22.70;94.40;;;;;;5034814;28;20207;-74
2022/08/24 04:06:22;;;;;;;5.82;2.75;;;22.70;94.80;;;;;;5032325;28;20217;-76
2022/08/24 04:08:52;;;;;;;5.13;2.75;;;22.70;94.40;;;;;;5034844;28;20229;-74
2022/08/24 04:11:25;;;;;;;4.10;2.63;;;22.70;94.40;;;;;;5035248;28;20229;-73
2022/08/24 04:13:56;;;;;;;5.03;2.58;;;22.70;94.40;;;;;;5036165;28;20196;-75
2022/08/24 04:16:26;;;;;;;5.82;2.38;;;22.80;94.50;;;;;;5039093;28;20203;-75
2022/08/24 04:18:57;;;;;;;10.48;2.65;;;22.80;94.50;;;;;;5040020;28;20195;-74
2022/08/24 04:21:29;;;;;;;5.18;2.88;;;22.80;94.40;;;;;;5034894;28;20191;-75
2022/08/24 04:23:59;;;;;;;8.60;2.60;;;22.80;94.40;;;;;;5037864;28;20191;-74
2022/08/24 04:26:31;;;;;;;5.72;2.83;;;22.80;94.40;;;;;;5040528;28;20205;-73
2022/08/24 04:29:14;;;;;;;4.80;2.70;;;22.80;94.40;;;;;;5038896;28;20195;-73
2022/08/24 04:31:43;;;;;;;4.30;2.38;;;22.90;94.40;;;;;;5036610;28;20218;-73
2022/08/24 04:34:13;;;;;;;7.05;2.90;;;22.90;94.30;;;;;;5031538;28;20226;-74
2022/08/24 04:36:43;;;;;;;6.97;2.72;;;22.90;94.30;;;;;;5031780;28;20911;-74
2022/08/24 04:39:13;;;;;;;4.63;2.50;;;22.90;94.30;;;;;;5029887;28;20200;-73
2022/08/24 04:41:42;;;;;;;7.32;2.65;;;22.90;94.20;;;;;;5037945;28;20237;-74
2022/08/24 04:44:11;;;;;;;8.20;2.40;;;23.00;94.20;;;;;;5041629;28;20635;-73
2022/08/24 04:46:40;;;;;;;5.03;2.38;;;23.00;94.10;;;;;;5040601;28;20199;-74
2022/08/24 04:49:08;;;;;;;7.45;2.47;;;23.00;94.10;;;;;;5039748;28;20187;-75
2022/08/24 04:51:37;;;;;;;6.18;3.05;;;23.10;94.00;;;;;;5037803;28;20198;-74
2022/08/24 04:54:07;;;;;;;6.35;2.67;;;23.10;94.00;;;;;;5034231;28;20195;-74
2022/08/24 04:56:37;;;;;;;7.93;3.03;;;23.10;93.90;;;;;;5034446;28;20203;-74
2022/08/24 04:59:07;;;;;;;4.88;2.83;;;23.20;93.90;;;;;;5039365;28;20213;-74
2022/08/24 05:01:35;;;;;;;6.63;3.10;;;23.20;93.90;;;;;;5041398;28;20191;-74
2022/08/24 05:04:04;;;;;;;9.00;2.40;;;23.20;93.80;;;;;;5036762;28;20199;-74
2022/08/24 05:06:33;;;;;;;6.43;2.60;;;23.30;93.70;;;;;;5039559;28;20197;-74
2022/08/24 05:09:06;;;;;;;6.55;2.58;;;23.30;93.60;;;;;;5033919;28;20235;-75
2022/08/24 05:11:39;;;;;;;5.60;2.72;;;23.40;93.50;;;;;;5033583;28;20191;-73
2022/08/24 05:14:16;;;;;;;7.40;2.75;;;23.40;93.40;;;;;;5033443;28;20758;-73
2022/08/24 05:16:45;;;;;;;5.25;2.25;;;23.50;93.30;;;;;;5037583;28;20206;-73
2022/08/24 05:19:21;;;;;;;10.43;2.92;;;23.50;93.20;;;;;;5037762;28;20194;-73
2022/08/24 05:21:50;;;;;;;6.03;2.53;;;23.60;93.00;;;;;;5041278;28;20194;-73
2022/08/24 05:24:19;;;;;;;7.45;2.30;;;23.60;93.00;;;;;;5031364;28;20230;-72
2022/08/24 05:26:50;;;;;;;7.80;2.08;;;23.60;92.90;;;;;;5036971;28;20211;-73
2022/08/24 05:29:20;;;;;;;7.25;3.00;;;23.70;92.80;;;;;;5032385;28;20228;-74
2022/08/24 05:31:48;;;;;;;8.02;2.90;;;23.70;92.50;;;;;;5040162;28;20994;-74
2022/08/24 05:34:18;;;;;;;9.23;2.67;;;23.70;92.40;;;;;;5036326;28;20191;-74
2022/08/24 05:36:46;;;;;;;5.88;3.03;;;23.80;92.40;;;;;;5038536;28;20647;-73
2022/08/24 05:39:15;;;;;;;6.65;2.67;;;23.90;92.30;;;;;;5033630;28;20183;-74
2022/08/24 05:41:45;;;;;;;8.50;2.60;;;23.90;92.20;;;;;;5038475;28;20199;-75
2022/08/24 05:44:17;;;;;;;6.63;2.70;;;23.90;92.10;;;;;;5040467;28;20194;-74
2022/08/24 05:46:46;;;;;;;4.22;2.50;;;24.00;92.10;;;;;;5040459;28;20195;-74
2022/08/24 05:49:15;;;;;;;6.03;2.78;;;24.00;92.00;;;;;;5038964;28;20910;-74
2022/08/24 05:51:43;;;;;;;7.10;2.40;;;24.10;91.90;;;;;;5035670;28;20192;-75
2022/08/24 05:54:13;;;;;;;5.88;2.50;;;24.10;91.90;;;;;;5038602;28;20836;-74
2022/08/24 05:56:43;;;;;;;6.43;2.72;;;24.20;91.90;;;;;;5038175;28;20206;-74
2022/08/24 05:59:12;;;;;;;8.88;2.90;;;24.30;91.80;;;;;;5037802;28;20198;-75
2022/08/24 06:01:42;;;;;;;7.55;2.03;;;24.40;91.70;;;;;;5030854;28;20192;-74
2022/08/24 06:04:13;;;;;;;4.15;2.58;;;24.40;91.60;;;;;;5034285;28;20195;-74
2022/08/24 06:06:41;;;;;;;9.57;3.10;;;24.50;91.40;;;;;;5034718;28;20589;-74
2022/08/24 06:09:13;;;;;;;10.65;2.65;;;24.60;91.30;;;;;;5018882;28;20239;-74
2022/08/24 06:11:41;;;;;;;8.05;2.70;;;24.60;91.20;;;;;;5013572;28;20192;-75
2022/08/24 06:14:12;;;;;;;7.18;2.55;;;24.70;91.00;;;;;;5015590;28;20203;-74
2022/08/24 06:16:43;;;;;;;5.32;2.30;;;24.80;90.90;;;;;;5019331;28;20208;-74
2022/08/24 06:19:14;;;;;;;5.10;2.33;;;24.80;91.00;;;;;;5017293;28;20198;-74
2022/08/24 06:21:45;;;;;;;6.90;2.55;;;24.90;90.80;;;;;;5018610;28;20194;-74
2022/08/24 06:24:15;;;;;;;8.38;2.33;;;25.00;90.70;;;;;;5016302;28;20188;-74
2022/08/24 06:29:33;;;;;;;6.18;2.13;;;25.10;90.50;;;;;;5021339;28;20771;-75
2022/08/24 06:32:03;;;;;;;4.25;2.20;;;25.10;90.40;;;;;;5016403;28;20196;-75
2022/08/24 06:34:32;;;;;;;6.30;2.40;;;25.20;90.20;;;;;;5019241;28;20206;-76
2022/08/24 06:37:01;;;;;;;4.47;2.30;;;25.30;90.10;;;;;;5018966;28;20831;-73
2022/08/24 06:39:29;;;;;;;6.55;2.30;;;25.30;90.10;;;;;;5015266;28;20210;-73
2022/08/24 06:41:58;;;;;;;5.03;2.47;;;25.40;89.90;;;;;;5010232;28;20999;-75
2022/08/24 06:44:26;;;;;;;5.07;2.30;;;25.40;89.40;;;;;;5012547;28;20647;-76
2022/08/24 06:46:55;;;;;;;8.43;2.90;;;25.50;89.30;;;;;;5013437;28;20799;-75
2022/08/24 06:49:25;;;;;;;5.28;2.38;;;25.50;89.00;;;;;;5011615;28;20267;-75
2022/08/24 06:51:53;;;;;;;3.50;2.03;;;25.60;88.70;;;;;;5007203;28;20192;-75
2022/08/24 06:54:21;;;;;;;6.05;2.60;;;25.70;88.70;;;;;;5010380;28;20211;-75
2022/08/24 06:56:50;;;;;;;10.93;2.53;;;25.70;88.60;;;;;;5014841;28;20219;-75
2022/08/24 06:59:19;;;;;;;7.07;2.60;;;25.80;88.30;;;;;;5013198;28;20280;-76
2022/08/24 07:01:48;;;;;;;8.75;3.20;;;25.80;88.10;;;;;;5018629;28;20196;-75
2022/08/24 07:04:16;;;;;;;8.98;2.67;;;25.90;87.90;;;;;;5018397;28;20192;-75
2022/08/24 07:06:46;;;;;;;5.95;2.70;;;26.00;87.60;;;;;;5021217;28;20200;-75
2022/08/24 07:09:17;;;;;;;9.77;2.90;;;26.10;87.70;;;;;;5012966;28;22037;-76
2022/08/24 07:11:47;;;;;;;5.03;2.97;;;26.10;87.50;;;;;;5012952;28;20200;-75
2022/08/24 07:14:16;;;;;;;8.10;2.70;;;26.10;87.40;;;;;;5012666;28;20193;-76
2022/08/24 07:16:44;;;;;;;10.00;3.65;;;26.20;87.20;;;;;;5009824;28;20220;-76
2022/08/24 07:19:13;;;;;;;5.18;2.17;;;26.30;87.10;;;;;;5014768;28;20199;-75
2022/08/24 07:21:41;;;;;;;5.72;2.42;;;26.30;87.10;;;;;;5020941;28;20772;-74
2022/08/24 07:24:11;;;;;;;6.93;2.25;;;26.40;86.90;;;;;;5011392;28;20227;-75
2022/08/24 07:26:40;;;;;;;7.05;2.10;;;26.40;86.70;;;;;;5014319;28;20689;-74
2022/08/24 07:29:14;;;;;;;11.35;4.00;;;26.50;86.70;;;;;;5022070;28;20196;-74
2022/08/24 07:32:02;;;;;;;6.70;2.50;;;26.50;86.60;;;;;;5018477;28;20193;-74
2022/08/24 07:34:31;;;;;;;5.55;2.03;;;26.60;87.50;;;;;;5021853;28;20200;-74
2022/08/24 07:37:00;;;;;;;8.43;2.60;;;26.60;86.50;;;;;;5017801;28;20212;-74
2022/08/24 07:39:30;;;;;;;6.20;2.55;;;26.70;86.40;;;;;;5014119;28;20192;-74
2022/08/24 07:41:58;;;;;;;11.00;2.65;;;26.70;86.10;;;;;;5024643;28;20191;-74
2022/08/24 07:44:41;;;;;;;8.32;2.22;;;26.80;85.70;;;;;;5022445;28;20202;-75
2022/08/24 07:47:09;;;;;;;7.72;2.70;;;26.80;85.60;;;;;;5017912;28;20690;-75
2022/08/24 07:49:58;;;;;;;5.70;2.25;;;26.90;85.70;;;;;;5024005;28;20396;-74
2022/08/24 07:52:26;;;;;;;8.35;2.65;;;27.00;85.50;;;;;;5020312;28;20281;-74
2022/08/24 07:54:56;;;;;;;8.77;2.45;;;27.00;85.30;;;;;;5011909;28;20222;-74
2022/08/24 07:57:25;;;;;;;4.43;2.35;;;27.10;84.60;;;;;;5020241;28;20235;-74
2022/08/24 07:59:55;;;;;;;8.02;2.30;;;27.10;84.30;;;;;;5018732;28;20192;-74
2022/08/24 08:02:23;;;;;;;8.77;2.63;;;27.20;83.80;;;;;;5014005;28;20202;-74
2022/08/24 08:04:57;;;;;;;8.40;3.17;;;27.20;83.50;;;;;;5020576;28;20551;-75
2022/08/24 08:07:26;;;;;;;9.60;2.65;;;27.30;83.30;;;;;;5013847;28;20196;-74
2022/08/24 08:09:56;;;;;;;5.38;2.00;;;27.40;83.60;;;;;;5024686;28;20199;-75
2022/08/24 08:12:25;;;;;;;7.28;2.10;;;27.40;83.60;;;;;;5023014;28;20284;-75
2022/08/24 08:14:53;;;;;;;12.55;2.28;;;27.50;82.60;;;;;;5022582;28;20192;-75
2022/08/24 08:17:21;;;;;;;5.57;2.25;;;27.50;80.10;;;;;;5015710;28;20237;-74
2022/08/24 08:19:50;;;;;;;3.75;1.90;;;27.60;80.80;;;;;;5022330;28;20286;-75
2022/08/24 08:25:07;;;;;;;6.15;2.22;;;27.80;80.30;;;;;;5013871;28;20227;-74
2022/08/24 08:27:35;;;;;;;6.10;2.20;;;27.80;79.70;;;;;;5024687;28;20192;-75
2022/08/24 08:30:06;;;;;;;8.35;1.92;;;27.90;79.70;;;;;;5021016;28;20693;-74
2022/08/24 08:32:34;;;;;;;9.18;2.00;;;28.00;79.60;;;;;;5018945;28;20196;-74
2022/08/24 08:35:03;;;;;;;14.95;2.35;;;28.00;79.10;;;;;;5019765;28;20196;-77
2022/08/24 08:37:31;;;;;;;9.50;2.03;;;28.10;75.00;;;;;;5023449;28;20215;-75
2022/08/24 08:40:00;;;;;;;13.07;2.58;;;28.10;73.80;;;;;;5012965;28;20725;-75
2022/08/24 08:42:56;;;;;;;5.95;2.05;;;28.10;72.70;;;;;;5019871;28;20215;-76
2022/08/24 08:45:40;;;;;;;8.68;1.92;;;28.20;73.40;;;;;;5013515;28;20199;-77
2022/08/24 08:48:48;;;;;;;8.75;2.67;;;28.20;74.50;;;;;;5020645;28;20245;-74
2022/08/24 08:51:58;;;;;;;11.48;2.40;;;28.30;74.20;;;;;;5013754;28;20286;-75
2022/08/24 08:54:45;;;;;;;11.52;2.38;;;28.40;72.00;;;;;;4941852;29;20202;-77
2022/08/24 08:57:32;;;;;;;14.20;2.97;;;28.40;71.70;;;;;;4934884;29;20840;-73
2022/08/24 09:00:14;;;;;;;10.80;2.15;;;28.50;71.30;;;;;;5003974;28;20195;-75
2022/08/24 09:03:17;;;;;;;9.65;2.58;;;28.50;69.90;;;;;;5016255;28;20192;-76
2022/08/24 09:06:00;;;;;;;10.60;2.10;;;28.50;71.30;;;;;;5018147;28;20202;-75
2022/08/24 09:08:40;;;;;;;8.82;1.92;;;28.60;71.50;;;;;;5015293;28;20332;-75
2022/08/24 09:11:31;;;;;;;4.68;1.73;;;28.70;71.80;;;;;;5011179;28;20498;-76
2022/08/24 09:14:31;;;;;;;6.32;1.85;;;28.70;72.20;;;;;;5022337;28;20195;-76
2022/08/24 09:17:25;;;;;;;9.38;2.08;;;28.80;72.90;;;;;;5000146;28;20224;-74
2022/08/24 09:20:08;;;;;;;6.35;1.70;;;28.90;72.90;;;;;;5013636;28;20210;-75
2022/08/24 09:22:39;;;;;;;13.38;2.45;;;28.90;72.70;;;;;;5014732;28;20657;-73
2022/08/24 09:25:25;;;;;;;3.95;1.92;;;28.90;72.40;;;;;;5021296;28;20200;-74
2022/08/24 09:28:13;;;;;;;5.53;2.40;;;29.00;72.20;;;;;;5023832;28;20191;-76
2022/08/24 09:31:03;;;;;;;9.43;2.60;;;29.10;72.00;;;;;;5017347;28;20192;-75
2022/08/24 09:33:42;;;;;;;8.77;3.30;;;29.10;72.00;;;;;;5017835;28;20210;-74
2022/08/24 09:36:13;;;;;;;10.75;2.17;;;29.10;71.70;;;;;;5019608;28;20184;-76
2022/08/24 09:38:59;;;;;;;8.27;1.75;;;29.20;71.80;;;;;;5016654;28;20216;-75
2022/08/24 09:42:16;;;;;;;9.80;1.92;;;29.20;71.10;;;;;;5020646;28;20192;-75
2022/08/24 09:45:15;;;;;;;8.10;2.33;;;29.20;71.50;;;;;;5014397;28;20195;-74
2022/08/24 09:48:09;;;;;;;5.78;2.25;;;29.30;71.60;;;;;;5012382;28;20199;-74
2022/08/24 09:51:45;;;;;;;8.27;2.63;;;29.40;70.60;;;;;;5011516;28;20227;-74
2022/08/24 09:54:50;;;;;;;11.82;1.52;;;29.40;70.90;;;;;;5010932;28;20192;-78
2022/08/24 09:57:35;;;;;;;14.13;1.85;;;29.50;70.90;;;;;;4996830;28;20927;-76
2022/08/24 10:00:28;;;;;;;11.15;1.90;;;29.50;70.90;;;;;;5012729;28;20199;-75
2022/08/24 10:03:13;;;;;;;13.27;2.00;;;29.60;70.70;;;;;;5009371;28;20282;-75
2022/08/24 10:06:01;;;;;;;12.68;2.40;;;29.60;70.20;;;;;;5018949;28;20701;-76
2022/08/24 10:08:44;;;;;;;6.65;1.55;;;29.70;70.20;;;;;;5011753;28;20318;-75
2022/08/24 10:11:22;;;;;;;11.00;1.60;;;29.80;68.80;;;;;;5011784;28;20274;-75
2022/08/24 10:14:03;;;;;;;10.45;1.92;;;29.90;66.20;;;;;;5016414;28;20194;-75
2022/08/24 10:16:40;;;;;;;10.07;2.13;;;29.90;66.90;;;;;;5018199;28;20195;-76
2022/08/24 10:19:26;;;;;;;13.82;1.80;;;30.00;67.20;;;;;;5016435;28;20753;-75
2022/08/24 10:22:07;;;;;;;6.28;1.63;;;30.00;66.70;;;;;;5015217;28;20940;-77
2022/08/24 10:24:47;;;;;;;8.02;1.05;;;30.10;65.80;;;;;;5022289;28;21095;-75
2022/08/24 10:27:37;;;;;;;9.25;2.38;;;30.20;66.10;;;;;;5014113;28;20302;-77
2022/08/24 10:30:35;;;;;;;17.33;1.45;;;30.20;65.80;;;;;;5013848;28;20199;-76
2022/08/24 10:33:13;;;;;;;9.32;1.63;;;30.30;65.60;;;;;;5011885;28;20810;-78
2022/08/24 10:35:58;;;;;;;6.35;1.40;;;30.40;65.70;;;;;;5016242;28;20282;-76
2022/08/24 10:43:32;;;;;;;11.80;1.85;;;30.40;62.60;;;;;;5019484;28;20560;-76
2022/08/24 10:45:17;;;;;;;13.43;2.25;;;30.50;62.50;;;;;;4934460;28;20331;-74
2022/08/24 10:48:07;;;;;;;10.20;2.17;;;30.50;62.90;;;;;;4937613;29;20190;-76
2022/08/24 10:50:50;;;;;;;12.30;2.17;;;30.60;63.10;;;;;;5015906;28;20199;-75
2022/08/24 10:53:24;;;;;;;7.85;1.60;;;30.70;63.60;;;;;;5011714;28;20188;-74
2022/08/24 10:56:04;;;;;;;14.20;2.03;;;30.70;63.50;;;;;;5014557;28;20254;-75
2022/08/24 10:58:55;;;;;;;6.35;1.50;;;30.80;62.50;;;;;;5014465;28;20226;-77
2022/08/24 11:01:28;;;;;;;8.38;1.88;;;30.80;61.60;;;;;;5016655;28;21047;-76
2022/08/24 11:04:07;;;;;;;6.53;1.38;;;30.90;62.40;;;;;;5011222;28;20184;-77
2022/08/24 11:07:05;;;;;;;8.98;1.67;;;30.90;61.50;;;;;;5020610;28;20198;-75
2022/08/24 11:09:45;;;;;;;9.50;1.85;;;31.00;59.90;;;;;;5019665;28;20223;-77
2022/08/24 11:12:23;;;;;;;12.45;1.95;;;31.10;61.00;;;;;;5014317;28;20196;-76
2022/08/24 11:14:57;;;;;;;13.23;2.10;;;31.10;61.30;;;;;;5022836;28;20195;-75
2022/08/24 11:17:28;;;;;;;13.15;2.75;;;31.20;60.60;;;;;;5025762;28;20195;-77
2022/08/24 11:19:58;;;;;;;8.85;1.83;;;31.20;60.20;;;;;;5022002;28;20202;-77
2022/08/24 11:22:39;;;;;;;12.75;2.05;;;31.20;58.50;;;;;;5021576;28;20331;-77
2022/08/24 11:25:14;;;;;;;13.93;2.47;;;31.30;59.20;;;;;;5017218;28;20294;-75
2022/08/24 11:27:46;;;;;;;10.20;1.85;;;31.30;59.60;;;;;;5020901;28;20183;-76
2022/08/24 11:30:25;;;;;;;12.35;2.33;;;31.40;60.10;;;;;;5022644;28;20208;-74
2022/08/24 11:32:55;;;;;;;11.63;2.17;;;31.40;60.00;;;;;;5019662;28;20670;-74
2022/08/24 11:35:26;;;;;;;13.32;2.05;;;31.50;60.60;;;;;;5021067;28;20214;-74
2022/08/24 11:37:57;;;;;;;17.23;1.80;;;31.50;59.50;;;;;;5016747;28;20220;-74
2022/08/24 11:40:30;;;;;;;10.27;1.95;;;31.60;58.60;;;;;;5021237;28;20190;-74
2022/08/24 11:43:11;;;;;;;11.55;1.70;;;31.70;59.30;;;;;;5020751;28;20195;-75
2022/08/24 11:45:49;;;;;;;19.17;2.22;;;31.70;59.20;;;;;;5011215;28;20185;-76
2022/08/24 11:48:28;;;;;;;13.35;1.83;;;31.70;58.10;;;;;;5021939;28;20184;-76
2022/08/24 11:51:02;;;;;;;11.98;1.60;;;31.80;57.70;;;;;;5025194;28;20223;-77
2022/08/24 11:53:39;;;;;;;18.75;2.53;;;31.80;57.70;;;;;;5021102;28;20187;-75
2022/08/24 11:56:20;;;;;;;14.23;2.13;;;31.90;58.10;;;;;;5022315;28;20191;-75
2022/08/24 11:59:00;;;;;;;24.63;2.53;;;31.90;58.30;;;;;;5017308;28;20535;-80
2022/08/24 12:01:35;;;;;;;11.20;2.08;;;32.00;57.40;;;;;;5019790;28;20180;-77
2022/08/24 12:04:37;;;;;;;8.60;2.08;;;32.00;55.70;;;;;;5023351;28;20194;-80
2022/08/24 12:07:15;;;;;;;13.57;2.13;;;32.00;56.10;;;;;;5016123;28;20191;-75
2022/08/24 12:09:56;;;;;;;14.05;2.00;;;32.00;55.90;;;;;;4971349;28;20655;-74
2022/08/24 12:12:30;;;;;;;11.98;1.95;;;32.00;55.70;;;;;;4979318;28;20194;-76
2022/08/24 12:15:03;;;;;;;15.63;2.60;;;32.00;56.00;;;;;;4979654;28;20194;-74
2022/08/24 12:17:37;;;;;;;13.75;2.47;;;32.00;55.40;;;;;;4973377;28;20193;-76
2022/08/24 12:20:24;;;;;;;10.48;1.90;;;32.00;56.00;;;;;;4979334;28;20212;-78
2022/08/24 12:22:56;;;;;;;16.45;2.55;;;32.10;56.20;;;;;;4980104;28;20879;-78
2022/08/24 12:28:17;;;;;;;10.63;2.03;;;32.20;56.80;;;;;;4979881;28;20197;-80
2022/08/24 12:30:46;;;;;;;14.45;2.35;;;32.30;57.50;;;;;;4967501;28;20205;-77
2022/08/24 12:33:19;;;;;;;12.70;1.92;;;32.20;57.40;;;;;;4982670;28;20212;-78
2022/08/24 12:35:53;;;;;;;17.92;2.45;;;32.20;57.30;;;;;;4977766;28;20291;-75
2022/08/24 12:38:25;;;;;;;14.27;2.00;;;32.20;57.10;;;;;;4976652;28;20348;-76
2022/08/24 12:40:57;;;;;;;10.27;2.17;;;32.20;57.20;;;;;;4980102;28;20762;-78
2022/08/24 12:43:36;;;;;;;13.55;1.98;;;32.20;57.30;;;;;;4975105;28;20236;-83
2022/08/24 12:46:05;;;;;;;12.82;2.10;;;32.20;57.50;;;;;;4975007;28;20659;-79
2022/08/24 12:48:42;;;;;;;9.57;1.90;;;32.20;57.80;;;;;;4972847;28;20202;-80
2022/08/24 12:51:21;;;;;;;11.43;1.88;;;32.20;58.00;;;;;;4979953;28;20189;-80
2022/08/24 12:54:32;;;;;;;7.25;1.80;;;32.20;57.20;;;;;;4974015;28;20199;-77
2022/08/24 12:57:25;;;;;;;5.00;1.60;;;32.20;57.70;;;;;;4923074;29;20191;-76
2022/08/24 12:59:57;;;;;;;12.77;2.42;;;32.20;57.50;;;;;;4975380;28;20217;-76
2022/08/24 13:02:33;;;;;;;16.63;2.25;;;32.30;58.10;;;;;;4976066;28;20207;-77
2022/08/24 13:05:11;;;;;;;13.20;1.98;;;32.30;58.40;;;;;;4974876;28;20201;-84
2022/08/24 13:07:44;;;;;;;11.43;2.90;;;32.30;57.50;;;;;;4984894;28;21312;-79
2022/08/24 13:10:34;;;;;;;14.82;2.65;;;32.30;57.80;;;;;;5015396;28;20195;-81
2022/08/24 13:13:14;;;;;;;8.93;2.58;;;32.40;58.00;;;;;;5018514;28;21427;-76
2022/08/24 13:16:02;;;;;;;12.63;1.83;;;32.40;58.10;;;;;;5015430;28;20857;-81
2022/08/24 13:19:19;;;;;;;14.18;2.58;;;32.40;58.20;;;;;;5010526;28;20206;-77
2022/08/24 13:21:56;;;;;;;8.30;2.10;;;32.40;58.40;;;;;;5008294;28;20203;-79
2022/08/24 13:24:59;;;;;;;12.80;2.85;;;32.50;59.40;;;;;;5011841;28;20253;-76
2022/08/24 13:28:12;;;;;;;11.27;1.90;;;32.50;58.80;;;;;;5011706;28;20187;-75
2022/08/24 13:31:05;;;;;;;21.60;3.13;;;32.50;58.80;;;;;;5014709;28;20196;-78
2022/08/24 13:33:41;;;;;;;11.98;3.03;;;32.50;58.90;;;;;;5016251;28;20735;-83
2022/08/24 13:36:46;;;;;;;13.90;2.92;;;32.50;59.30;;;;;;5013113;28;20722;-85